KBLH

Blythe Airport

Blythe, California, USA
METAR KBLH 182052Z AUTO 17008KT 10SM CLR 41/17 A2986 RMK AO2 SLP103 T04110172 58025 $
Observed Flight Rules
Aug-18 @ 20:52 UTC (an hour ago) Visual Flight Rules
Wind Visibility Clouds
170° at 8 knots 10 miles
  • Clear skies
Temperatures Readings
Current 41°C / 106°F
Dewpoint 17°C / 63°F
Humidity 25%
Altimeter 29.86" Hg
Pressure 1010.3 hPa
Elevation 119
METAR KBLH 182052Z AUTO 17008KT 10SM CLR 41/17 A2986 RMK AO2 SLP103 T04110172 58025 $
Observed Flight Rules
Aug-18 @ 20:52 UTC
(an hour ago)
VFR
Wind Visibility
170° at 8 knots 10 miles
Clouds
  • Clear skies
Temperature Dewpoint
41°C / 106°F 17°C / 63°F
Humidity Altimeter Pressure
25% 29.86" Hg 1010.3 hPa